This is the latest recevied weather packets stored in our database for station/object LKMT. If no packets are shown the sender has not sent any weather packets the latest 1 day(s).
| Time | Temp. | Humidity | Pressure | Rain* | Wind** | Luminosity | Snow |
|---|---|---|---|---|---|---|---|
| 1777957358 | 10° C | 76% | 1010 hPa | - | 0.45 m/s, 0° | - | - |
| 1777955544 | 7.22° C | 81% | 1011 hPa | - | 1.34 m/s, 350° | - | - |
| 1777954916 | 7.78° C | 75% | - | - | 0.89 m/s, 0° | - | - |
| 1777953753 | 7.22° C | 81% | 1010 hPa | - | 0.89 m/s, 0° | - | - |
| 1777951944 | 7.22° C | 93% | 1011 hPa | - | 0 m/s | - | - |
| 1777951316 | 7.22° C | 93% | - | - | 0 m/s | - | - |
| 1777950153 | 7.22° C | 93% | 1011 hPa | - | 0.45 m/s, 0° | - | - |
| 1777948344 | 7.22° C | 75% | 1011 hPa | - | 2.24 m/s, 70° | - | - |
| 1777947715 | 8.89° C | 66% | - | - | 2.24 m/s, 70° | - | - |
| 1777946551 | 7.22° C | 75% | 1011 hPa | - | 1.34 m/s, 70° | - | - |
| 1777944744 | 8.89° C | 66% | 1012 hPa | - | 0.45 m/s, 0° | - | - |
| 1777944117 | 10° C | 61% | - | - | 0.89 m/s, 0° | - | - |
| 1777942952 | 10° C | 61% | 1012 hPa | - | 0.45 m/s, 0° | - | - |
| 1777941144 | 10° C | 66% | 1012 hPa | - | 0.45 m/s, 0° | - | - |
| 1777940516 | 11.11° C | 57% | - | - | 0.89 m/s, 0° | - | - |
| 1777939353 | 10° C | 66% | 1012 hPa | - | 0.45 m/s, 0° | - | - |
| 1777937544 | 11.11° C | 62% | 1012 hPa | - | 0.45 m/s, 0° | - | - |
| 1777936948 | 10° C | 66% | - | - | 0 m/s | - | - |
| 1777935760 | 10° C | 61% | 1013 hPa | - | 0 m/s | - | - |
| 1777933950 | 12.22° C | 58% | 1013 hPa | - | 0.45 m/s, 0° | - | - |
| 1777933317 | 12.78° C | 50% | - | - | 0.89 m/s, 0° | - | - |
| 1777932160 | 12.78° C | 50% | 1013 hPa | - | 0.89 m/s, 0° | - | - |
| 1777930344 | 11.11° C | 57% | 1013 hPa | - | 1.34 m/s, 70° | - | - |
| 1777929716 | 15° C | 38% | - | - | 0.89 m/s, 80° | - | - |
* Rain since midnight (hover to see other rain measurements)
** Current wind speed in m/s (hover to see current wind gust speed)